Time;durP1;ratioP1;P1;durP2;ratioP2;P2;SDS_P1;SDS_P2;PMS_P1;PMS_P2;Temp;Humidity;BMP_temperature;BMP_pressure;BME280_temperature;BME280_humidity;BME280_pressure;Samples;Min_cycle;Max_cycle;Signal;HPM_P1;HPM_P2
2022/12/06 00:00:07;;;;;;;22.40;13.25;;;;;;;-0.23;100.00;98653.50;4218635;27;20481;-75
2022/12/06 00:02:07;;;;;;;22.42;13.95;;;;;;;-0.21;100.00;98651.28;4218738;28;20051;-75
2022/12/06 00:04:11;;;;;;;22.45;13.50;;;;;;;-0.20;100.00;98654.78;4216825;27;20147;-75
2022/12/06 00:06:15;;;;;;;22.10;13.05;;;;;;;-0.20;100.00;98633.84;4219175;28;20036;-74
2022/12/06 00:08:16;;;;;;;25.00;15.00;;;;;;;-0.20;100.00;98644.72;4216106;28;20509;-75
2022/12/06 00:10:16;;;;;;;24.25;14.23;;;;;;;-0.20;100.00;98644.72;4210712;28;20040;-75
2022/12/06 00:12:16;;;;;;;22.02;13.73;;;;;;;-0.18;100.00;98633.53;4218414;28;20111;-75
2022/12/06 00:14:17;;;;;;;23.98;14.50;;;;;;;-0.18;100.00;98636.25;4215543;27;20047;-75
2022/12/06 00:16:18;;;;;;;24.42;13.95;;;;;;;-0.19;100.00;98630.00;4217402;27;20034;-74
2022/12/06 00:18:18;;;;;;;21.45;12.27;;;;;;;-0.17;100.00;98635.94;4216026;28;20444;-75
2022/12/06 00:20:18;;;;;;;23.48;12.27;;;;;;;-0.16;100.00;98628.63;4217939;27;20482;-75
2022/12/06 00:22:19;;;;;;;19.38;11.48;;;;;;;-0.18;100.00;98634.34;4217332;28;20027;-74
2022/12/06 00:24:21;;;;;;;21.92;12.18;;;;;;;-0.20;100.00;98630.31;4214399;28;20345;-75
2022/12/06 00:26:22;;;;;;;18.52;11.98;;;;;;;-0.18;100.00;98623.47;4218326;28;20043;-75
2022/12/06 00:28:22;;;;;;;20.08;11.52;;;;;;;-0.17;100.00;98625.06;4215383;28;20376;-75
2022/12/06 00:30:23;;;;;;;18.80;10.80;;;;;;;-0.18;100.00;98614.50;4213171;27;20046;-75
2022/12/06 00:32:23;;;;;;;17.88;10.43;;;;;;;-0.17;100.00;98616.09;4213119;27;20042;-75
2022/12/06 00:34:23;;;;;;;18.42;10.85;;;;;;;-0.16;100.00;98615.03;4218614;27;20346;-74
2022/12/06 00:36:26;;;;;;;17.25;10.23;;;;;;;-0.16;100.00;98618.53;4216968;27;20043;-75
2022/12/06 00:38:28;;;;;;;14.73;8.63;;;;;;;-0.15;100.00;98611.19;4216849;28;20046;-75
2022/12/06 00:40:28;;;;;;;14.15;8.50;;;;;;;-0.17;100.00;98614.19;4218142;28;20041;-75
2022/12/06 00:42:28;;;;;;;12.95;8.73;;;;;;;-0.17;100.00;98597.06;4209691;28;20075;-75
2022/12/06 00:44:28;;;;;;;11.93;7.90;;;;;;;-0.14;100.00;98604.63;4216720;28;20071;-74
2022/12/06 00:46:30;;;;;;;14.00;8.43;;;;;;;-0.16;100.00;98610.38;4216242;28;20507;-75
2022/12/06 00:48:31;;;;;;;14.60;8.73;;;;;;;-0.16;100.00;98609.59;4216636;27;20075;-75
2022/12/06 00:50:31;;;;;;;11.40;7.30;;;;;;;-0.19;100.00;98605.53;4216392;28;20039;-75
2022/12/06 00:52:32;;;;;;;10.70;7.68;;;;;;;-0.17;100.00;98599.78;4217260;28;20172;-75
2022/12/06 00:54:32;;;;;;;14.02;7.07;;;;;;;-0.18;100.00;98606.34;4215849;28;20068;-75
2022/12/06 00:56:35;;;;;;;10.13;6.10;;;;;;;-0.21;100.00;98599.59;4216802;28;20110;-74
2022/12/06 00:58:35;;;;;;;11.07;6.68;;;;;;;-0.17;100.00;98599.78;4215934;28;20368;-75
2022/12/06 01:00:36;;;;;;;10.25;7.30;;;;;;;-0.17;100.00;98594.34;4216913;28;20061;-75
2022/12/06 01:02:36;;;;;;;11.60;7.30;;;;;;;-0.16;100.00;98604.16;4214823;28;20641;-75
2022/12/06 01:04:36;;;;;;;10.52;7.10;;;;;;;-0.17;100.00;98597.06;4215840;27;20101;-75
2022/12/06 01:06:37;;;;;;;11.50;6.63;;;;;;;-0.20;100.00;98593.06;4216496;28;20059;-75
2022/12/06 01:08:39;;;;;;;10.13;6.82;;;;;;;-0.19;100.00;98600.09;4217228;28;20042;-75
2022/12/06 01:10:40;;;;;;;10.38;7.35;;;;;;;-0.17;100.00;98597.06;4217730;28;20545;-75
2022/12/06 01:12:40;;;;;;;11.60;6.30;;;;;;;-0.16;100.00;98609.59;4216040;27;20198;-74
2022/12/06 01:14:40;;;;;;;8.07;5.80;;;;;;;-0.16;100.00;98615.81;4214865;28;20036;-75
2022/12/06 01:16:40;;;;;;;10.20;6.57;;;;;;;-0.15;100.00;98601.13;4218054;28;20059;-75
2022/12/06 01:18:42;;;;;;;9.68;5.72;;;;;;;-0.14;100.00;98604.63;4217201;28;20092;-75
2022/12/06 01:20:44;;;;;;;9.93;6.28;;;;;;;-0.14;100.00;98607.34;4217278;28;20071;-75
2022/12/06 01:22:44;;;;;;;8.60;5.72;;;;;;;-0.14;100.00;98605.44;4215404;27;20031;-75
2022/12/06 01:24:46;;;;;;;10.60;5.63;;;;;;;-0.12;100.00;98605.13;4216320;28;20127;-75
2022/12/06 01:26:46;;;;;;;9.73;5.55;;;;;;;-0.13;100.00;98607.03;4217954;28;20069;-75
2022/12/06 01:28:46;;;;;;;8.98;5.45;;;;;;;-0.12;100.00;98610.56;4216611;28;20238;-75
2022/12/06 01:30:47;;;;;;;8.15;5.70;;;;;;;-0.13;100.00;98619.84;4216652;27;20047;-75
2022/12/06 01:32:47;;;;;;;9.13;5.05;;;;;;;-0.13;100.00;98606.25;4216302;27;20751;-75
2022/12/06 01:34:51;;;;;;;7.95;4.97;;;;;;;-0.11;100.00;98617.63;4217876;28;20528;-75
2022/12/06 01:36:51;;;;;;;8.57;5.15;;;;;;;-0.11;100.00;98612.97;4218531;28;20095;-75
2022/12/06 01:38:53;;;;;;;9.88;5.38;;;;;;;-0.10;100.00;98611.06;4218564;28;20429;-75
2022/12/06 01:40:54;;;;;;;11.35;5.90;;;;;;;-0.09;100.00;98609.94;4218067;27;20471;-75
2022/12/06 01:42:54;;;;;;;9.07;6.28;;;;;;;-0.08;100.00;98614.31;4212490;28;20059;-75
2022/12/06 01:44:57;;;;;;;12.43;6.05;;;;;;;-0.09;100.00;98616.19;4218424;28;20043;-75
2022/12/06 01:46:57;;;;;;;;;;;;;;;-0.09;100.00;98624.34;4219012;28;20321;-75
2022/12/06 01:49:02;;;;;;;13.05;7.30;;;;;;;-0.10;100.00;98628.19;4218891;27;19919;-75
2022/12/06 01:51:05;;;;;;;15.48;8.35;;;;;;;-0.10;100.00;98619.22;4217207;27;20794;-75
2022/12/06 01:53:10;;;;;;;13.60;8.10;;;;;;;-0.10;100.00;98611.06;4217459;27;20060;-75
2022/12/06 01:55:12;;;;;;;13.85;7.30;;;;;;;-0.09;100.00;98613.47;4218053;27;20131;-75
2022/12/06 01:57:14;;;;;;;10.18;6.70;;;;;;;-0.10;100.00;98606.44;4218461;27;20787;-75
2022/12/06 01:59:15;;;;;;;14.68;7.97;;;;;;;-0.08;100.00;98609.66;4216436;27;20043;-75
2022/12/06 02:01:15;;;;;;;12.85;8.00;;;;;;;-0.07;100.00;98607.75;4218139;27;20046;-75
2022/12/06 02:03:23;;;;;;;13.82;6.97;;;;;;;-0.10;100.00;98601.00;4216848;28;20650;-75
2022/12/06 02:05:24;;;;;;;11.85;7.22;;;;;;;-0.09;100.00;98602.59;4218199;28;20040;-75
2022/12/06 02:07:26;;;;;;;11.15;7.82;;;;;;;-0.08;100.00;98603.44;4217418;28;20039;-75
2022/12/06 02:09:28;;;;;;;11.52;6.53;;;;;;;-0.12;100.00;98600.50;4217902;27;20086;-75
2022/12/06 02:11:28;;;;;;;15.63;7.97;;;;;;;-0.11;100.00;98599.38;4218414;28;20114;-75
2022/12/06 02:13:30;;;;;;;14.65;8.57;;;;;;;-0.10;100.00;98603.72;4215206;28;20071;-75
2022/12/06 02:15:46;;;;;;;14.60;9.25;;;;;;;-0.07;100.00;98600.41;4216565;28;20073;-75
2022/12/06 02:17:54;;;;;;;16.02;10.95;;;;;;;-0.07;100.00;98603.13;4217460;27;20391;-75
2022/12/06 02:20:10;;;;;;;17.42;9.45;;;;;;;-0.07;100.00;98597.69;4217655;28;20122;-74
2022/12/06 02:22:37;;;;;;;11.63;8.15;;;;;;;-0.03;100.00;98604.09;4217532;28;20403;-75
2022/12/06 02:25:16;;;;;;;10.18;5.93;;;;;;;-0.01;100.00;98596.44;4219988;27;20383;-76
2022/12/06 02:27:35;;;;;;;10.15;5.47;;;;;;;0.01;100.00;98600.78;4220114;28;20039;-75
2022/12/06 02:29:47;;;;;;;11.50;6.60;;;;;;;0.01;100.00;98598.88;4221180;27;20051;-74
2022/12/06 02:32:10;;;;;;;7.82;5.88;;;;;;;-0.04;100.00;98597.06;4219679;28;20047;-75
2022/12/06 02:34:41;;;;;;;8.70;5.38;;;;;;;0.00;100.00;98600.00;4218436;27;20108;-75
2022/12/06 02:36:57;;;;;;;7.50;4.78;;;;;;;-0.01;100.00;98598.34;4214744;27;20044;-75
2022/12/06 02:39:20;;;;;;;11.88;6.80;;;;;;;-0.03;100.00;98593.22;4221268;27;20413;-76
2022/12/06 02:41:31;;;;;;;25.48;13.68;;;;;;;-0.05;100.00;98584.56;4220793;27;20107;-75
2022/12/06 02:43:39;;;;;;;36.45;16.50;;;;;;;-0.09;100.00;98589.00;4210165;28;20658;-75
2022/12/06 02:45:45;;;;;;;23.90;13.73;;;;;;;-0.07;100.00;98586.00;4220474;28;20306;-75
2022/12/06 02:47:47;;;;;;;24.70;12.20;;;;;;;-0.10;100.00;98586.59;4219510;27;20318;-76
2022/12/06 02:49:49;;;;;;;18.92;10.27;;;;;;;-0.12;100.00;98577.94;4218410;28;20140;-75
2022/12/06 02:51:53;;;;;;;14.82;8.00;;;;;;;-0.11;100.00;98579.53;4219375;28;20506;-75
2022/12/06 02:53:56;;;;;;;9.73;5.40;;;;;;;-0.08;100.00;98581.66;4218884;28;20398;-75
2022/12/06 02:55:57;;;;;;;11.13;5.97;;;;;;;-0.10;100.00;98571.06;4220654;27;20047;-75
2022/12/06 02:57:58;;;;;;;11.40;6.90;;;;;;;-0.10;100.00;98570.25;4220189;28;20051;-75
2022/12/06 02:59:58;;;;;;;11.88;5.88;;;;;;;-0.10;100.00;98575.69;4219668;27;20044;-75
2022/12/06 03:02:01;;;;;;;12.50;6.00;;;;;;;-0.08;100.00;98579.75;4221001;27;20485;-75
2022/12/06 03:04:15;;;;;;;9.70;6.00;;;;;;;-0.10;100.00;98568.34;4219361;28;20382;-75
2022/12/06 03:06:22;;;;;;;10.45;6.85;;;;;;;-0.08;100.00;98576.22;4220349;27;20038;-75
2022/12/06 03:08:36;;;;;;;11.15;6.28;;;;;;;-0.11;100.00;98571.38;4219524;27;20130;-75
2022/12/06 03:10:46;;;;;;;12.52;6.35;;;;;;;-0.09;100.00;98567.22;4218704;27;20050;-75
2022/12/06 03:13:16;;;;;;;12.85;6.88;;;;;;;-0.08;100.00;98562.63;4220538;27;20044;-75
2022/12/06 03:15:22;;;;;;;18.35;9.27;;;;;;;-0.08;100.00;98562.63;4219715;27;20040;-75
2022/12/06 03:17:35;;;;;;;55.92;26.10;;;;;;;-0.06;100.00;98555.75;4219498;27;20218;-75
2022/12/06 03:19:36;;;;;;;;;;;;;;;0.02;100.00;98556.16;4221057;27;20081;-75
2022/12/06 03:21:43;;;;;;;17.13;10.07;;;;;;;0.04;100.00;98553.91;4218884;27;20366;-75
2022/12/06 03:23:46;;;;;;;26.40;13.77;;;;;;;0.08;100.00;98558.41;4219855;27;20471;-75
2022/12/06 03:25:49;;;;;;;40.00;21.40;;;;;;;0.11;100.00;98554.31;4211226;28;20051;-75
2022/12/06 03:27:52;;;;;;;31.77;16.95;;;;;;;0.09;100.00;98545.66;4218611;27;20977;-75
2022/12/06 03:29:56;;;;;;;33.45;17.35;;;;;;;0.13;100.00;98557.50;4218503;28;20059;-74
2022/12/06 03:32:01;;;;;;;27.15;15.95;;;;;;;0.11;100.00;98551.59;4220672;27;20136;-75
2022/12/06 03:34:10;;;;;;;28.88;16.05;;;;;;;0.14;100.00;98550.97;4217916;27;20395;-75
2022/12/06 03:36:13;;;;;;;19.30;10.82;;;;;;;0.12;100.00;98543.09;4219584;28;20032;-75
2022/12/06 03:38:30;;;;;;;11.65;5.60;;;;;;;0.30;100.00;98543.25;4218422;28;20118;-75
2022/12/06 03:40:35;;;;;;;18.70;8.93;;;;;;;0.30;100.00;98535.06;4218102;27;20039;-75
2022/12/06 03:42:36;;;;;;;25.38;13.48;;;;;;;0.28;100.00;98536.19;4218822;28;20051;-73
2022/12/06 03:44:37;;;;;;;14.10;7.63;;;;;;;0.28;100.00;98540.84;4219424;27;20039;-74
2022/12/06 03:46:43;;;;;;;15.55;8.32;;;;;;;0.26;100.00;98534.91;4219542;28;20032;-76
2022/12/06 03:48:57;;;;;;;20.73;10.93;;;;;;;0.26;100.00;98541.16;4218795;28;20059;-75
2022/12/06 03:51:03;;;;;;;20.77;10.93;;;;;;;0.25;100.00;98525.94;4218232;27;20052;-75
2022/12/06 03:53:04;;;;;;;24.15;12.07;;;;;;;0.22;100.00;98531.97;4219213;28;20375;-75
2022/12/06 03:55:05;;;;;;;18.77;10.82;;;;;;;0.21;100.00;98532.28;4218982;27;20276;-75
2022/12/06 03:57:05;;;;;;;23.73;13.02;;;;;;;0.19;100.00;98529.09;4219800;28;20074;-74
2022/12/06 03:59:09;;;;;;;24.15;11.82;;;;;;;0.18;100.00;98525.56;4219361;28;20047;-74
2022/12/06 04:01:09;;;;;;;21.23;10.93;;;;;;;0.17;100.00;98525.88;4217357;28;20043;-75
2022/12/06 04:03:10;;;;;;;25.98;13.95;;;;;;;0.17;100.00;98520.44;4218891;28;20101;-75
2022/12/06 04:05:11;;;;;;;32.20;16.25;;;;;;;0.17;100.00;98525.88;4219077;27;20039;-75
2022/12/06 04:07:12;;;;;;;27.02;14.82;;;;;;;0.15;100.00;98519.91;4218075;28;20503;-75
2022/12/06 04:11:31;;;;;;;29.13;16.08;;;;;;;0.17;100.00;98523.16;4219585;28;20099;-75
2022/12/06 04:13:32;;;;;;;24.17;13.05;;;;;;;0.13;100.00;98519.41;4209734;28;20122;-74
2022/12/06 04:15:37;;;;;;;25.10;11.70;;;;;;;0.11;100.00;98518.94;4217213;27;20092;-75
2022/12/06 04:19:57;;;;;;;15.35;8.23;;;;;;;0.08;100.00;98516.81;4219913;28;20055;-75
2022/12/06 04:24:16;;;;;;;12.07;7.70;;;;;;;0.03;100.00;98506.06;4216352;27;20050;-74
2022/12/06 04:26:19;;;;;;;17.08;10.15;;;;;;;0.07;100.00;98510.56;4218963;27;20458;-75
2022/12/06 04:39:54;;;;;;;14.35;8.10;;;;;;;0.10;100.00;98509.16;4218352;27;20043;-75
2022/12/06 04:44:13;;;;;;;11.32;6.90;;;;;;;0.05;100.00;98499.19;4216597;28;20124;-75
2022/12/06 04:46:17;;;;;;;12.93;7.22;;;;;;;0.03;100.00;98506.88;4219112;27;20059;-75
2022/12/06 04:48:17;;;;;;;18.45;9.20;;;;;;;0.02;100.00;98499.03;4216677;28;20028;-74
2022/12/06 04:50:17;;;;;;;16.52;10.27;;;;;;;0.02;100.00;98505.28;4217579;27;20027;-75
2022/12/06 04:52:18;;;;;;;25.38;13.82;;;;;;;0.00;100.00;98510.22;4218960;27;20032;-75
2022/12/06 04:54:20;;;;;;;18.60;10.55;;;;;;;0.01;100.00;98500.13;4217839;28;20019;-75
2022/12/06 04:56:20;;;;;;;22.52;11.98;;;;;;;0.06;100.00;98511.69;4218169;28;20460;-74
2022/12/06 04:58:20;;;;;;;15.65;8.98;;;;;;;0.05;100.00;98501.13;4218423;27;20079;-76
2022/12/06 05:00:21;;;;;;;15.48;8.82;;;;;;;0.11;100.00;98502.63;4218265;27;20399;-75
2022/12/06 05:02:21;;;;;;;24.27;12.57;;;;;;;0.09;100.00;98507.56;4217156;27;20565;-75
2022/12/06 05:04:22;;;;;;;11.82;6.85;;;;;;;0.12;100.00;98505.03;4216628;28;20066;-75
2022/12/06 05:06:22;;;;;;;9.50;5.95;;;;;;;0.12;100.00;98499.56;4218463;28;20039;-74
2022/12/06 05:08:23;;;;;;;13.98;9.23;;;;;;;0.12;100.00;98504.22;4216943;28;20047;-75
2022/12/06 05:10:23;;;;;;;20.67;11.20;;;;;;;0.12;100.00;98505.03;4216566;27;20206;-75
2022/12/06 05:12:23;;;;;;;24.98;15.75;;;;;;;0.16;100.00;98503.28;4216039;28;20077;-76
2022/12/06 05:14:24;;;;;;;25.30;14.50;;;;;;;0.14;100.00;98500.06;4218375;27;20117;-75
2022/12/06 05:16:24;;;;;;;15.18;9.77;;;;;;;0.17;100.00;98496.75;4218826;28;20054;-77
2022/12/06 05:18:25;;;;;;;13.35;9.13;;;;;;;0.21;100.00;98507.81;4218078;27;20488;-77
2022/12/06 05:20:25;;;;;;;14.75;10.02;;;;;;;0.15;100.00;98496.22;4215351;28;20047;-75
2022/12/06 05:22:25;;;;;;;9.52;6.18;;;;;;;0.27;100.00;98509.28;4204042;28;20518;-77
2022/12/06 05:24:26;;;;;;;14.45;9.15;;;;;;;0.28;100.00;98516.34;4214952;27;20042;-77
2022/12/06 05:26:28;;;;;;;9.95;6.35;;;;;;;0.30;100.00;98500.50;4208097;28;20034;-76
2022/12/06 05:28:29;;;;;;;12.27;6.93;;;;;;;0.31;100.00;98507.53;4213152;28;20050;-76
2022/12/06 05:30:29;;;;;;;15.50;8.93;;;;;;;0.32;100.00;98505.63;4210977;28;20483;-76
2022/12/06 05:32:29;;;;;;;13.45;8.30;;;;;;;0.35;100.00;98494.94;4215305;28;20165;-77
2022/12/06 05:34:30;;;;;;;13.68;8.02;;;;;;;0.32;100.00;98492.81;4211611;28;20567;-76
2022/12/06 05:36:30;;;;;;;12.43;8.27;;;;;;;0.31;100.00;98499.38;4214210;27;20127;-76
2022/12/06 05:38:31;;;;;;;15.30;9.13;;;;;;;0.32;100.00;98500.19;4219521;27;20169;-76
2022/12/06 05:40:32;;;;;;;13.93;7.40;;;;;;;0.32;100.00;98505.63;4218135;28;20086;-75
2022/12/06 05:42:32;;;;;;;9.98;6.90;;;;;;;0.27;100.00;98503.84;4214678;27;20136;-75
2022/12/06 05:44:32;;;;;;;11.50;6.45;;;;;;;0.33;100.00;98505.31;4217026;28;20075;-76
2022/12/06 05:46:33;;;;;;;10.07;6.53;;;;;;;0.31;100.00;98498.56;4216138;28;20043;-75
2022/12/06 05:48:34;;;;;;;13.18;7.22;;;;;;;0.29;100.00;98507.06;4217183;28;20087;-76
2022/12/06 05:50:35;;;;;;;13.60;7.57;;;;;;;0.35;100.00;98500.38;4216198;28;20814;-76
2022/12/06 05:52:35;;;;;;;10.10;6.90;;;;;;;0.38;100.00;98509.84;4214311;27;20040;-76
2022/12/06 05:54:36;;;;;;;14.85;8.25;;;;;;;0.38;100.00;98499.75;4215029;28;20542;-76
2022/12/06 05:56:36;;;;;;;11.00;7.00;;;;;;;0.39;100.00;98500.56;4157813;27;20480;-75
2022/12/06 05:58:38;;;;;;;13.15;8.18;;;;;;;0.32;100.00;98503.72;4219156;27;20170;-75
2022/12/06 06:00:38;;;;;;;12.30;6.85;;;;;;;0.29;100.00;98490.72;4220430;27;20031;-75
2022/12/06 06:02:39;;;;;;;9.50;6.25;;;;;;;0.29;100.00;98496.16;4215847;27;20499;-75
2022/12/06 06:04:39;;;;;;;10.48;6.75;;;;;;;0.30;100.00;98477.94;4220855;27;20047;-76
2022/12/06 06:06:39;;;;;;;10.13;6.22;;;;;;;0.31;100.00;98484.97;4216065;27;20054;-76
2022/12/06 06:08:40;;;;;;;10.63;7.10;;;;;;;0.29;100.00;98485.28;4220208;27;20032;-76
2022/12/06 06:10:40;;;;;;;10.10;6.63;;;;;;;0.31;100.00;98482.25;4219704;28;20423;-75
2022/12/06 06:12:43;;;;;;;14.63;7.82;;;;;;;0.30;100.00;98481.44;4217520;28;20036;-76
2022/12/06 06:14:43;;;;;;;10.27;6.10;;;;;;;0.37;100.00;98475.56;4219873;28;20400;-75
2022/12/06 06:16:44;;;;;;;14.57;9.68;;;;;;;0.31;100.00;98485.78;4217885;28;20184;-76
2022/12/06 06:18:44;;;;;;;11.57;6.82;;;;;;;0.29;100.00;98474.41;4217719;28;20043;-76
2022/12/06 06:20:49;;;;;;;14.50;8.25;;;;;;;0.26;100.00;98484.00;4220086;27;20114;-76
2022/12/06 06:22:50;;;;;;;14.52;8.63;;;;;;;0.22;100.00;98479.47;4220146;28;20044;-76
2022/12/06 06:24:50;;;;;;;12.23;6.30;;;;;;;0.29;100.00;98482.56;4217356;28;20497;-76
2022/12/06 06:26:50;;;;;;;10.13;6.97;;;;;;;0.31;100.00;98488.50;4218619;27;20063;-76
2022/12/06 06:28:51;;;;;;;11.63;6.75;;;;;;;0.24;100.00;98483.47;4219075;28;20127;-76
2022/12/06 06:30:51;;;;;;;15.82;7.53;;;;;;;0.20;100.00;98484.44;4218632;28;20383;-76
2022/12/06 06:32:51;;;;;;;12.70;7.32;;;;;;;0.19;100.00;98480.09;4216901;27;20101;-76
2022/12/06 06:34:52;;;;;;;11.75;7.18;;;;;;;0.17;100.00;98480.41;4218597;27;20044;-76
2022/12/06 06:36:52;;;;;;;11.52;6.40;;;;;;;0.17;100.00;98483.13;4218862;28;20043;-76
2022/12/06 06:38:52;;;;;;;11.32;6.60;;;;;;;0.16;100.00;98486.94;4218768;27;20511;-75
2022/12/06 06:40:53;;;;;;;13.13;7.32;;;;;;;0.19;100.00;98480.91;4218197;28;20495;-76
2022/12/06 06:42:53;;;;;;;10.60;6.65;;;;;;;0.22;100.00;98477.56;4220560;27;20032;-75
2022/12/06 06:44:54;;;;;;;14.00;8.88;;;;;;;0.18;100.00;98481.22;4219618;27;20044;-75
2022/12/06 06:46:54;;;;;;;12.90;7.45;;;;;;;0.16;100.00;98486.16;4219481;28;20043;-76
2022/12/06 06:48:55;;;;;;;13.40;7.05;;;;;;;0.15;100.00;98495.44;4209462;28;20090;-75
2022/12/06 06:51:18;;;;;;;9.80;6.22;;;;;;;0.19;100.00;98486.34;4220418;27;20564;-76
2022/12/06 06:53:18;;;;;;;;;;;;;;;0.16;100.00;98491.59;4221160;28;20048;-76
2022/12/06 06:55:19;;;;;;;11.77;6.63;;;;;;;0.16;100.00;98492.38;4220513;28;20389;-76
2022/12/06 06:57:19;;;;;;;19.85;9.88;;;;;;;0.18;100.00;98492.91;4219610;28;20051;-76
2022/12/06 06:59:19;;;;;;;20.13;10.98;;;;;;;0.19;100.00;98497.22;4220191;28;20055;-76
2022/12/06 07:01:22;;;;;;;14.32;8.02;;;;;;;0.19;100.00;98497.22;4218612;27;20040;-76
2022/12/06 07:03:23;;;;;;;;;;;;;;;0.17;100.00;98494.03;4219224;27;20036;-76
2022/12/06 07:05:24;;;;;;;11.43;8.20;;;;;;;0.18;100.00;98489.38;4222380;27;19922;-76
2022/12/06 07:07:24;;;;;;;14.90;8.05;;;;;;;0.15;100.00;98488.06;4219325;27;20109;-76
2022/12/06 07:09:24;;;;;;;15.10;7.40;;;;;;;0.12;100.00;98496.84;4220926;28;20039;-76
2022/12/06 07:11:25;;;;;;;12.05;7.35;;;;;;;0.11;100.00;98497.16;4221622;27;20047;-76
2022/12/06 07:13:27;;;;;;;13.95;9.15;;;;;;;0.17;100.00;98501.38;4220721;27;20079;-76
2022/12/06 07:15:27;;;;;;;14.20;8.30;;;;;;;0.21;100.00;98508.59;4220592;28;20444;-75
2022/12/06 07:17:27;;;;;;;14.13;8.48;;;;;;;0.19;100.00;98502.69;4221113;28;20132;-75
2022/12/06 07:19:28;;;;;;;17.20;8.32;;;;;;;0.16;100.00;98494.31;4220928;28;20043;-76
2022/12/06 07:21:28;;;;;;;16.08;8.52;;;;;;;0.18;100.00;98501.06;4221736;27;20474;-76
2022/12/06 07:23:30;;;;;;;16.85;9.95;;;;;;;0.15;100.00;98495.44;4219911;28;20047;-76
2022/12/06 07:25:31;;;;;;;14.70;8.93;;;;;;;0.11;100.00;98497.97;4220969;28;20039;-76
2022/12/06 07:27:37;;;;;;;14.98;9.15;;;;;;;0.20;100.00;98506.19;4220107;28;20534;-76
2022/12/06 07:29:37;;;;;;;14.77;7.38;;;;;;;0.19;100.00;98499.94;4220940;27;20437;-76
2022/12/06 07:31:39;;;;;;;11.65;6.15;;;;;;;0.22;100.00;98503.97;4221182;28;20035;-76
2022/12/06 07:33:41;;;;;;;16.02;8.45;;;;;;;0.20;100.00;98511.63;4210642;28;20079;-76
2022/12/06 07:35:41;;;;;;;14.00;7.37;;;;;;;0.19;100.00;98510.03;4220160;28;20048;-76
2022/12/06 07:37:42;;;;;;;16.90;8.73;;;;;;;0.18;100.00;98519.31;4220613;27;20312;-76
2022/12/06 07:39:43;;;;;;;17.83;9.82;;;;;;;0.16;100.00;98506.00;4219432;27;20035;-76
2022/12/06 07:46:22;;;;;;;11.63;6.57;;;;;;;0.25;100.00;98498.72;4220720;27;20047;-76
2022/12/06 07:48:22;;;;;;;10.13;6.55;;;;;;;0.20;100.00;98503.47;4219966;27;20040;-76
2022/12/06 07:50:23;;;;;;;11.50;6.65;;;;;;;0.16;100.00;98503.28;4221049;27;20104;-76
2022/12/06 07:52:23;;;;;;;9.93;5.60;;;;;;;0.17;100.00;98518.50;4208785;28;20511;-76
2022/12/06 07:54:24;;;;;;;10.32;6.20;;;;;;;0.13;100.00;98501.19;4219190;27;20044;-76
2022/12/06 07:56:24;;;;;;;11.90;6.10;;;;;;;0.12;100.00;98506.94;4220783;28;20043;-76
2022/12/06 07:58:24;;;;;;;7.55;5.47;;;;;;;0.12;100.00;98515.91;4218008;28;20343;-76
2022/12/06 08:00:25;;;;;;;8.30;5.82;;;;;;;0.11;100.00;98508.84;4220360;27;20044;-76
2022/12/06 08:02:26;;;;;;;8.48;5.72;;;;;;;0.19;100.00;98510.84;4217943;28;20124;-76
2022/12/06 08:04:26;;;;;;;9.20;5.88;;;;;;;0.19;100.00;98519.00;4218537;27;20039;-76
2022/12/06 08:06:28;;;;;;;13.77;7.97;;;;;;;0.19;100.00;98510.84;4218756;28;20043;-76
2022/12/06 08:08:30;;;;;;;10.82;6.38;;;;;;;0.17;100.00;98509.53;4219938;28;20389;-76
2022/12/06 08:10:31;;;;;;;11.38;7.25;;;;;;;0.16;100.00;98507.91;4219137;28;20385;-76
2022/12/06 08:12:31;;;;;;;10.73;6.00;;;;;;;0.19;100.00;98510.84;4217778;28;20051;-76
2022/12/06 08:14:32;;;;;;;8.27;5.20;;;;;;;0.15;100.00;98501.66;4219357;28;20467;-76
2022/12/06 08:16:32;;;;;;;11.13;6.75;;;;;;;0.15;100.00;98511.75;4219987;27;20035;-76
2022/12/06 08:18:32;;;;;;;12.57;7.63;;;;;;;0.12;100.00;98513.19;4217204;28;20036;-76
2022/12/06 08:20:33;;;;;;;9.65;6.10;;;;;;;0.11;100.00;98519.75;4218986;28;20115;-76
2022/12/06 08:22:33;;;;;;;7.18;4.93;;;;;;;0.18;100.00;98525.56;4219505;28;20551;-76
2022/12/06 08:24:34;;;;;;;8.75;6.00;;;;;;;0.19;100.00;98515.47;4217912;28;20088;-76
2022/12/06 08:26:35;;;;;;;7.60;4.82;;;;;;;0.14;100.00;98512.88;4219974;28;20063;-76
2022/12/06 08:28:36;;;;;;;9.32;5.90;;;;;;;0.12;100.00;98517.81;4211054;28;20188;-76
2022/12/06 08:30:40;;;;;;;12.70;6.17;;;;;;;0.11;100.00;98525.19;4219675;28;20375;-76
2022/12/06 08:32:41;;;;;;;10.00;5.55;;;;;;;0.08;100.00;98514.91;4218547;27;20117;-76
2022/12/06 08:34:42;;;;;;;8.43;6.15;;;;;;;0.13;100.00;98519.41;4218976;28;20063;-76
2022/12/06 08:36:43;;;;;;;7.90;5.25;;;;;;;0.15;100.00;98518.00;4218149;27;20039;-76
2022/12/06 08:38:44;;;;;;;11.60;5.80;;;;;;;0.20;100.00;98525.25;4218709;27;20188;-76
2022/12/06 08:40:44;;;;;;;8.35;5.43;;;;;;;0.21;100.00;98526.84;4219765;28;20031;-76
2022/12/06 08:42:45;;;;;;;8.55;5.20;;;;;;;0.22;100.00;98528.44;4218719;28;20040;-76
2022/12/06 08:44:50;;;;;;;8.43;5.78;;;;;;;0.17;100.00;98531.31;4220254;28;20036;-76
2022/12/06 08:46:51;;;;;;;11.73;7.95;;;;;;;0.17;100.00;98526.69;4218549;27;20043;-76
2022/12/06 08:48:52;;;;;;;8.02;5.00;;;;;;;0.16;100.00;98535.13;4219912;27;20044;-76
2022/12/06 08:50:52;;;;;;;8.68;5.00;;;;;;;0.17;100.00;98525.88;4218392;27;20795;-76
2022/12/06 08:52:53;;;;;;;7.80;4.90;;;;;;;0.12;100.00;98524.06;4218423;27;20031;-76
2022/12/06 08:54:53;;;;;;;8.43;5.38;;;;;;;0.10;100.00;98525.50;4219214;27;20032;-76
2022/12/06 08:56:54;;;;;;;11.32;6.25;;;;;;;0.17;100.00;98529.41;4218121;28;20573;-75
2022/12/06 08:58:55;;;;;;;7.22;5.07;;;;;;;0.15;100.00;98526.16;4219931;28;20043;-75
2022/12/06 09:00:55;;;;;;;7.18;4.82;;;;;;;0.23;100.00;98533.59;4218647;28;20105;-76
2022/12/06 09:02:56;;;;;;;10.63;5.60;;;;;;;0.21;100.00;98537.72;4218882;28;20440;-76
2022/12/06 09:04:56;;;;;;;6.65;4.82;;;;;;;0.31;100.00;98537.47;4218975;27;20044;-76
2022/12/06 09:06:56;;;;;;;10.27;5.78;;;;;;;0.21;100.00;98530.38;4220136;28;20048;-76
2022/12/06 09:08:57;;;;;;;9.45;5.60;;;;;;;0.24;100.00;98542.53;4219508;27;20055;-76
2022/12/06 09:10:57;;;;;;;10.55;6.20;;;;;;;0.27;100.00;98545.47;4217814;28;20454;-76
2022/12/06 09:12:57;;;;;;;11.93;6.47;;;;;;;0.30;100.00;98537.78;4219205;28;20136;-76
2022/12/06 09:14:58;;;;;;;10.00;5.85;;;;;;;0.27;100.00;98540.03;4216904;28;20043;-76
2022/12/06 09:16:58;;;;;;;8.57;5.57;;;;;;;0.25;100.00;98552.34;4219157;28;20460;-76
2022/12/06 09:18:59;;;;;;;8.63;5.72;;;;;;;0.25;100.00;98547.72;4219333;28;20047;-76
2022/12/06 09:21:06;;;;;;;9.90;6.20;;;;;;;0.24;100.00;98550.72;4217570;27;20523;-75
2022/12/06 09:23:07;;;;;;;8.52;6.13;;;;;;;0.22;100.00;98547.50;4218447;27;20061;-75
2022/12/06 09:25:07;;;;;;;9.23;5.70;;;;;;;0.24;100.00;98548.00;4218979;27;20043;-76
2022/12/06 09:27:07;;;;;;;9.02;6.13;;;;;;;0.18;100.00;98554.69;4218251;28;20040;-76
2022/12/06 09:29:09;;;;;;;9.93;5.85;;;;;;;0.18;100.00;98543.81;4217786;27;20055;-76
2022/12/06 09:31:09;;;;;;;9.70;5.93;;;;;;;0.16;100.00;98554.97;4219718;27;20047;-76
2022/12/06 09:33:09;;;;;;;10.40;5.55;;;;;;;0.26;100.00;98553.94;4218373;28;20090;-76
2022/12/06 09:35:10;;;;;;;10.68;6.20;;;;;;;0.24;100.00;98554.22;4218657;28;20722;-76
2022/12/06 09:37:12;;;;;;;9.93;5.90;;;;;;;0.20;100.00;98555.97;4219312;28;20051;-76
2022/12/06 09:39:21;;;;;;;8.05;5.45;;;;;;;0.18;100.00;98541.88;4219601;28;20051;-76
2022/12/06 09:41:47;;;;;;;9.73;6.30;;;;;;;0.23;100.00;98555.34;4219645;28;20116;-76
2022/12/06 09:44:26;;;;;;;9.90;5.75;;;;;;;0.23;100.00;98557.28;4205474;28;20093;-76
2022/12/06 09:46:36;;;;;;;11.98;7.32;;;;;;;0.22;100.00;98548.31;4201361;28;20036;-76
2022/12/06 09:48:55;;;;;;;12.40;7.15;;;;;;;0.18;100.00;98551.97;4218176;28;20579;-76
2022/12/06 09:50:59;;;;;;;11.43;6.78;;;;;;;0.16;100.00;98548.72;4219165;27;20058;-76
2022/12/06 09:53:08;;;;;;;10.35;6.25;;;;;;;0.10;100.00;98544.53;4210196;28;20479;-76
2022/12/06 09:55:21;;;;;;;14.80;6.70;;;;;;;0.18;100.00;98549.25;4218306;28;20039;-76